Terminal Aerodrome Forecast
Issued by NWS Burlington, VT

Home | Current Version | Previous Version | Text Only | Print | Product List | Glossary On
Versions: 1 2 3 4 5 6 7 8 9 10 11 12 13 14 15
000
FTUS41 KBTV 300528
TAFBTV
TAF
KBTV 300528Z 3006/3106 17009KT P6SM SCT250
     FM301500 19017G28KT P6SM BKN100
     FM302000 19017G28KT P6SM VCSH BKN060
     FM302300 20015G25KT P6SM -SHRA OVC050=

USA.gov is the U.S. government's official web portal to all federal, state and local government web resources and services.